Melissa, Texas
Current Conditions -  °F | °C
As of 4:53 AM on Thursday 23 Oct 2014 (Local Time) from KTKI Reporting Station
Overcast Overcast  
Wind Chill: 61°   Ceiling: 8500
Heat Index: 61°   Visibility: 10mi
Dew Point: 56°   Wind: 3mph
Humidity: 83%   Direction: 80°E
Pressure: 30.13"   Gusts: NA
Location:  33.29°N, 96.57°W
Report Text: KTKI 230953Z AUTO 08003KT 10SM OVC085 16/13 A3013 RMK AO2 SLP203 T01610133
Loading
Personal Weather Stations






























Interactive Weather Map
Tropical Storm Tracking
New forecast layout! Learn more

10-Day Weather Forecast

Advertisements
Track Severe Weather on mobile